Route Details

Aircraft Information
Group: European Fleet
Types: A30F, A31F, B738
Route Data
Distance: 907nm
Duration: 2h 10m
Origin METAR: LGTS 010520Z 33013KT 9999 FEW030 05/M02 Q1021 NOSIG
Dest. METAR: EDDK 010450Z AUTO 27012KT CAVOK 06/02 Q1020 NOSIG
Freight Data
(for Feb 1, 2023)
Load Factor:
87%
Manifested Cargo: 70,109lbs
Financial History
Total Freight: 177,614lbs
Average Load: 0lbs/flt
Fuel Used: 116,830lbs
Avg. Fuel Used: 0lbs/flt
Fuel Expense: $53,781
Avg. Fuel Expense: $0
Avg. Fuel Cost: $0/lbs
Total Gross Income: $401,818
Pilot Pay: $1,295
Total Expenses: $86,764
Total Revenue: $256,497
Average Revenue: $0

Capitol Logistics 553




LGTS
Makedonia Airport
Thessaloniki, GR
EDDK
Cologne Bonn Airport
Cologne, DE